Time;durP1;ratioP1;P1;durP2;ratioP2;P2;SDS_P1;SDS_P2;PMS_P1;PMS_P2;Temp;Humidity;BMP_temperature;BMP_pressure;BME280_temperature;BME280_humidity;BME280_pressure;Samples;Min_cycle;Max_cycle;Signal;HPM_P1;HPM_P2
2021/05/11 00:01:37;;;;;;;8.15;2.42;;;17.90;71.40;;;;;;5035410;28;20292;-62
2021/05/11 00:04:03;;;;;;;7.22;2.67;;;17.90;71.40;;;;;;5018541;28;20112;-62
2021/05/11 00:06:28;;;;;;;10.18;3.00;;;17.90;71.40;;;;;;5028782;28;20030;-61
2021/05/11 00:08:54;;;;;;;14.15;2.78;;;17.90;71.50;;;;;;5040754;28;20096;-61
2021/05/11 00:11:19;;;;;;;11.57;2.50;;;17.90;71.50;;;;;;5031859;28;20374;-61
2021/05/11 00:13:45;;;;;;;14.70;2.58;;;17.90;71.60;;;;;;5027796;28;20484;-61
2021/05/11 00:16:10;;;;;;;13.55;3.15;;;17.80;71.60;;;;;;5039251;28;20021;-61
2021/05/11 00:18:36;;;;;;;10.15;2.70;;;17.80;71.60;;;;;;5036431;28;20029;-61
2021/05/11 00:21:02;;;;;;;11.88;2.63;;;17.80;71.60;;;;;;5036817;28;20385;-61
2021/05/11 00:23:27;;;;;;;8.30;2.67;;;17.80;71.70;;;;;;5031657;28;20107;-61
2021/05/11 00:25:53;;;;;;;11.07;2.67;;;17.80;71.70;;;;;;5037650;28;20543;-62
2021/05/11 00:28:18;;;;;;;7.55;2.13;;;17.80;71.80;;;;;;5025577;28;20534;-62
2021/05/11 00:30:44;;;;;;;7.35;2.63;;;17.70;71.80;;;;;;5033332;28;20029;-61
2021/05/11 00:33:09;;;;;;;7.10;2.47;;;17.70;71.80;;;;;;5037499;28;20021;-62
2021/05/11 00:35:35;;;;;;;9.48;2.45;;;17.70;71.90;;;;;;5039483;28;20025;-61
2021/05/11 00:38:00;;;;;;;5.75;2.35;;;17.70;72.00;;;;;;5038441;28;20029;-61
2021/05/11 00:40:26;;;;;;;7.95;2.50;;;17.70;72.00;;;;;;5032843;28;20045;-61
2021/05/11 00:42:51;;;;;;;8.00;2.63;;;17.60;72.00;;;;;;5041157;28;20116;-63
2021/05/11 00:45:17;;;;;;;6.72;2.28;;;17.60;72.10;;;;;;5033806;28;20040;-61
2021/05/11 00:47:42;;;;;;;8.55;2.40;;;17.60;72.10;;;;;;5034308;28;20125;-61
2021/05/11 00:50:09;;;;;;;7.10;2.13;;;17.60;72.20;;;;;;5039440;28;20453;-62
2021/05/11 00:52:34;;;;;;;5.95;2.08;;;17.60;72.30;;;;;;5042851;28;20041;-61
2021/05/11 00:55:00;;;;;;;7.05;2.47;;;17.50;72.20;;;;;;5041383;28;20026;-61
2021/05/11 00:57:25;;;;;;;6.05;2.45;;;17.50;72.20;;;;;;5034120;28;20114;-61
2021/05/11 00:59:51;;;;;;;6.25;1.90;;;17.50;72.30;;;;;;5029394;28;20032;-61
2021/05/11 01:02:17;;;;;;;8.13;1.83;;;17.50;72.40;;;;;;5038179;28;20044;-62
2021/05/11 01:04:42;;;;;;;4.93;1.92;;;17.50;72.50;;;;;;5035280;28;20037;-62
2021/05/11 01:07:08;;;;;;;7.03;1.85;;;17.40;72.40;;;;;;5033387;28;20072;-62
2021/05/11 01:09:33;;;;;;;8.07;1.73;;;17.50;72.50;;;;;;5033013;28;20454;-63
2021/05/11 01:11:59;;;;;;;3.38;1.60;;;17.40;72.50;;;;;;5015794;28;20116;-62
2021/05/11 01:14:28;;;;;;;5.88;1.83;;;17.40;72.50;;;;;;5038542;28;20100;-62
2021/05/11 01:17:01;;;;;;;3.78;1.80;;;17.40;72.50;;;;;;5037159;28;20026;-61
2021/05/11 01:19:39;;;;;;;5.70;2.35;;;17.40;72.50;;;;;;5026183;28;20049;-61
2021/05/11 01:24:41;;;;;;;5.93;2.42;;;17.30;73.30;;;;;;5034042;28;20481;-62
2021/05/11 01:27:14;;;;;;;6.85;2.38;;;17.30;72.70;;;;;;5031063;28;20060;-62
2021/05/11 01:29:56;;;;;;;4.72;1.70;;;17.30;72.80;;;;;;5041769;28;20496;-63
2021/05/11 02:22:56;;;;;;;4.53;2.40;;;16.90;75.30;;;;;;5027056;28;20028;-62
2021/05/11 02:25:21;;;;;;;3.00;2.08;;;16.90;75.20;;;;;;5017014;28;20041;-61
2021/05/11 02:27:47;;;;;;;4.82;2.03;;;16.90;75.20;;;;;;5029637;28;20029;-62
2021/05/11 02:30:13;;;;;;;4.82;1.98;;;16.80;75.20;;;;;;5028464;28;20477;-62
2021/05/11 02:32:40;;;;;;;2.00;1.80;;;16.90;75.20;;;;;;5034595;28;20029;-61
2021/05/11 02:35:06;;;;;;;3.58;2.03;;;16.90;75.30;;;;;;5034480;28;20649;-62
2021/05/11 02:37:31;;;;;;;2.95;2.30;;;16.90;75.30;;;;;;5027388;28;20041;-62
2021/05/11 02:39:57;;;;;;;4.38;2.20;;;16.90;75.50;;;;;;5045146;28;20025;-61
2021/05/11 02:42:22;;;;;;;3.95;2.20;;;16.80;75.40;;;;;;5035544;28;20036;-61
2021/05/11 02:44:48;;;;;;;3.13;1.70;;;16.80;75.60;;;;;;5031146;28;20029;-61
2021/05/11 02:47:13;;;;;;;2.35;1.88;;;16.80;75.50;;;;;;5033939;28;20108;-62
2021/05/11 02:49:43;;;;;;;3.50;2.28;;;16.80;75.50;;;;;;5027975;28;21067;-61
2021/05/11 02:52:08;;;;;;;5.88;3.03;;;16.80;75.50;;;;;;5042797;28;20017;-62
2021/05/11 02:54:34;;;;;;;3.25;2.20;;;16.80;75.50;;;;;;5036601;28;20028;-62
2021/05/11 02:56:59;;;;;;;5.72;2.38;;;16.80;75.40;;;;;;5043084;28;20775;-62
2021/05/11 02:59:25;;;;;;;5.65;2.55;;;16.80;75.40;;;;;;5029527;28;20037;-61
2021/05/11 03:01:50;;;;;;;4.75;2.58;;;16.80;75.60;;;;;;5029760;28;20401;-61
2021/05/11 03:04:16;;;;;;;3.83;2.33;;;16.80;75.50;;;;;;5034754;28;20045;-62
2021/05/11 03:06:41;;;;;;;6.22;2.55;;;16.80;75.50;;;;;;5040391;28;20037;-62
2021/05/11 03:09:07;;;;;;;6.55;2.45;;;16.80;75.60;;;;;;5029601;28;20029;-61
2021/05/11 03:11:32;;;;;;;4.88;2.30;;;16.80;75.60;;;;;;5029915;28;20044;-61
2021/05/11 03:13:58;;;;;;;6.28;2.28;;;16.80;75.50;;;;;;5040693;28;20033;-61
2021/05/11 03:16:25;;;;;;;5.47;2.17;;;16.80;75.50;;;;;;5034707;28;20042;-62
2021/05/11 03:18:50;;;;;;;4.05;2.40;;;16.80;75.40;;;;;;5030562;28;20029;-62
2021/05/11 03:21:16;;;;;;;4.50;2.17;;;16.80;75.40;;;;;;5032212;28;20076;-61
2021/05/11 03:23:41;;;;;;;3.38;2.03;;;16.80;75.40;;;;;;5027177;28;20083;-61
2021/05/11 03:26:07;;;;;;;3.72;2.00;;;16.80;75.50;;;;;;5038680;28;20029;-62
2021/05/11 03:28:32;;;;;;;4.93;2.15;;;16.80;75.40;;;;;;5039737;28;20049;-61
2021/05/11 03:30:58;;;;;;;4.25;2.30;;;16.80;75.40;;;;;;5033232;28;20505;-61
2021/05/11 03:33:23;;;;;;;8.57;2.35;;;16.80;75.60;;;;;;5037056;28;20033;-61
2021/05/11 03:35:49;;;;;;;5.07;2.58;;;16.70;75.60;;;;;;5045122;28;20029;-62
2021/05/11 03:38:14;;;;;;;9.23;2.35;;;16.70;75.80;;;;;;5033688;28;20029;-61
2021/05/11 03:40:40;;;;;;;4.82;2.45;;;16.70;75.80;;;;;;5030317;28;20030;-61
2021/05/11 03:43:10;;;;;;;4.47;2.38;;;16.70;75.70;;;;;;5029968;28;20125;-62
2021/05/11 03:45:41;;;;;;;7.15;2.38;;;16.70;75.90;;;;;;5029937;28;20025;-61
2021/05/11 03:48:07;;;;;;;3.80;2.38;;;16.70;75.80;;;;;;5034845;28;20044;-61
2021/05/11 03:50:32;;;;;;;5.43;2.35;;;16.70;75.70;;;;;;5044832;28;20435;-62
2021/05/11 03:52:58;;;;;;;4.65;2.30;;;16.70;75.80;;;;;;5037628;28;20064;-62
2021/05/11 03:55:23;;;;;;;4.15;2.30;;;16.70;75.70;;;;;;5027625;28;20033;-61
2021/05/11 03:57:49;;;;;;;4.25;2.22;;;16.70;75.70;;;;;;5031145;28;20423;-61
2021/05/11 04:00:15;;;;;;;7.00;2.42;;;16.70;75.80;;;;;;5045879;28;20029;-61
2021/05/11 04:02:40;;;;;;;3.78;1.90;;;16.70;75.80;;;;;;5030899;28;20495;-61
2021/05/11 04:05:09;;;;;;;23.10;4.20;;;16.70;75.80;;;;;;5034065;28;20048;-61
2021/05/11 04:07:36;;;;;;;81.35;9.35;;;16.70;75.80;;;;;;5026436;28;20025;-61
2021/05/11 04:10:06;;;;;;;77.10;7.88;;;16.70;75.90;;;;;;5014243;28;20021;-61
2021/05/11 04:12:50;;;;;;;77.03;7.82;;;16.70;76.00;;;;;;5031418;28;20032;-62
2021/05/11 04:18:00;;;;;;;77.00;8.13;;;16.70;75.90;;;;;;5038444;28;20108;-62
2021/05/11 04:20:25;;;;;;;54.28;8.05;;;16.70;75.80;;;;;;5033959;28;20112;-61
2021/05/11 04:22:51;;;;;;;55.28;8.20;;;16.70;75.90;;;;;;5039927;28;20079;-61
2021/05/11 04:25:16;;;;;;;68.65;7.70;;;16.60;75.90;;;;;;5035713;28;20110;-62
2021/05/11 04:27:42;;;;;;;59.17;6.93;;;16.70;75.90;;;;;;5046496;28;20503;-62
2021/05/11 04:30:09;;;;;;;70.32;6.95;;;16.70;75.90;;;;;;5036850;28;20029;-61
2021/05/11 04:32:34;;;;;;;79.40;8.40;;;16.70;75.80;;;;;;5034829;28;20064;-62
2021/05/11 04:35:00;;;;;;;90.63;9.02;;;16.70;75.80;;;;;;5044879;28;20037;-63
2021/05/11 04:37:25;;;;;;;175.63;15.40;;;16.70;75.90;;;;;;5036091;28;20021;-61
2021/05/11 04:39:52;;;;;;;166.20;15.02;;;16.70;75.90;;;;;;5036946;28;20032;-61
2021/05/11 04:42:17;;;;;;;367.58;27.15;;;16.70;75.90;;;;;;5043329;28;20500;-62
2021/05/11 04:44:43;;;;;;;636.03;58.28;;;16.70;76.10;;;;;;5031875;28;20115;-61
2021/05/11 04:47:18;;;;;;;381.27;30.80;;;16.70;76.00;;;;;;5031978;28;20128;-61
2021/05/11 04:49:44;;;;;;;346.33;27.50;;;16.70;76.00;;;;;;5031916;28;20025;-61
2021/05/11 04:52:09;;;;;;;598.22;53.70;;;16.70;76.00;;;;;;5035537;28;20044;-63
2021/05/11 04:54:35;;;;;;;579.15;51.08;;;16.70;76.20;;;;;;5032536;28;20029;-61
2021/05/11 04:57:01;;;;;;;554.00;44.65;;;16.70;76.10;;;;;;5039004;28;20017;-62
2021/05/11 04:59:26;;;;;;;491.00;38.15;;;16.70;76.10;;;;;;5032496;28;20170;-62
2021/05/11 05:01:53;;;;;;;393.85;33.95;;;16.70;76.30;;;;;;5030507;28;20132;-61
2021/05/11 05:04:19;;;;;;;347.17;28.35;;;16.70;76.40;;;;;;5026878;28;20468;-62
2021/05/11 05:06:45;;;;;;;373.48;29.90;;;16.70;76.40;;;;;;5015162;28;20034;-62
2021/05/11 05:09:10;;;;;;;259.95;24.92;;;16.70;76.30;;;;;;5034929;28;20037;-62
2021/05/11 05:11:39;;;;;;;300.02;24.70;;;16.70;76.50;;;;;;5035474;28;20149;-62
2021/05/11 05:14:06;;;;;;;266.55;27.77;;;16.70;76.50;;;;;;5033957;28;20039;-62
2021/05/11 05:16:32;;;;;;;279.85;25.25;;;16.70;76.60;;;;;;5030746;28;20397;-62
2021/05/11 05:18:58;;;;;;;271.63;23.42;;;16.80;76.80;;;;;;5034459;28;20112;-61
2021/05/11 05:21:23;;;;;;;243.27;25.95;;;16.80;76.60;;;;;;5031419;28;20163;-62
2021/05/11 05:23:59;;;;;;;239.57;21.52;;;16.80;76.40;;;;;;5032364;28;20047;-61
2021/05/11 05:26:26;;;;;;;221.75;22.20;;;16.80;76.30;;;;;;5036456;28;20048;-61
2021/05/11 05:28:52;;;;;;;205.45;20.95;;;16.80;76.40;;;;;;5030838;28;20030;-62
2021/05/11 05:31:18;;;;;;;200.32;21.15;;;16.80;76.80;;;;;;5038094;28;20028;-62
2021/05/11 05:33:43;;;;;;;196.43;20.10;;;16.80;76.80;;;;;;5035437;28;20025;-61
2021/05/11 05:36:09;;;;;;;206.80;20.85;;;16.80;77.20;;;;;;5035286;28;20033;-61
2021/05/11 05:38:37;;;;;;;231.95;22.33;;;16.70;76.90;;;;;;5034524;28;20029;-61
2021/05/11 05:41:08;;;;;;;186.45;17.88;;;16.80;77.70;;;;;;5034199;28;20026;-62
2021/05/11 05:43:33;;;;;;;178.60;18.00;;;16.80;77.10;;;;;;5036117;28;20721;-62
2021/05/11 05:45:59;;;;;;;179.00;19.23;;;16.70;77.00;;;;;;5030995;28;20033;-62
2021/05/11 05:48:24;;;;;;;199.30;20.35;;;16.80;77.10;;;;;;5029353;28;20025;-62
2021/05/11 05:50:56;;;;;;;174.57;15.98;;;16.80;77.10;;;;;;5033467;28;20334;-62
2021/05/11 05:53:34;;;;;;;160.98;16.65;;;16.80;77.10;;;;;;5035035;28;20036;-62
2021/05/11 05:56:00;;;;;;;151.85;17.33;;;16.80;76.90;;;;;;5043281;28;20104;-61
2021/05/11 05:58:25;;;;;;;173.35;17.05;;;16.80;76.70;;;;;;5039388;28;20388;-61
2021/05/11 06:00:55;;;;;;;196.25;18.08;;;16.80;76.60;;;;;;5041191;28;20044;-61
2021/05/11 06:03:37;;;;;;;200.07;19.42;;;16.80;76.60;;;;;;5039601;28;20116;-62
2021/05/11 06:06:04;;;;;;;159.50;16.05;;;16.80;76.60;;;;;;5027775;28;20034;-62
2021/05/11 06:08:30;;;;;;;123.03;14.38;;;16.80;76.70;;;;;;5047973;28;20021;-63
2021/05/11 06:11:04;;;;;;;131.02;17.17;;;16.80;77.40;;;;;;5027335;28;20132;-63
2021/05/11 06:13:38;;;;;;;118.97;15.85;;;16.80;76.60;;;;;;5041756;28;20079;-60
2021/05/11 06:18:47;;;;;;;130.88;14.60;;;16.80;76.50;;;;;;5038074;28;20138;-62
2021/05/11 06:21:13;;;;;;;118.95;13.13;;;16.80;76.50;;;;;;5027046;28;20029;-61
2021/05/11 06:23:38;;;;;;;120.32;13.20;;;16.90;76.50;;;;;;5035098;28;20029;-61
2021/05/11 06:26:04;;;;;;;100.78;13.15;;;16.90;76.50;;;;;;5030040;28;20029;-61
2021/05/11 06:28:31;;;;;;;123.70;13.15;;;16.90;76.60;;;;;;5031924;28;20025;-61
2021/05/11 06:30:57;;;;;;;87.90;11.07;;;16.90;76.30;;;;;;5029192;28;20227;-61
2021/05/11 06:33:22;;;;;;;93.82;11.40;;;16.90;76.40;;;;;;5026663;28;20038;-62
2021/05/11 06:35:52;;;;;;;113.05;11.15;;;17.00;76.40;;;;;;5029250;28;20040;-62
2021/05/11 06:38:17;;;;;;;101.10;13.23;;;17.00;76.40;;;;;;5035198;28;20059;-62
2021/05/11 06:40:43;;;;;;;101.60;11.93;;;17.00;76.90;;;;;;5035063;28;20025;-61
2021/05/11 06:43:08;;;;;;;96.47;10.20;;;17.00;77.10;;;;;;5033457;28;20655;-61
2021/05/11 06:53:31;;;;;;;105.05;9.52;;;17.10;78.10;;;;;;5034007;28;20031;-62
2021/05/11 06:55:57;;;;;;;75.20;8.60;;;17.10;77.60;;;;;;5032679;28;20137;-61
2021/05/11 06:58:23;;;;;;;70.72;9.40;;;17.10;77.40;;;;;;5031133;28;20133;-61
2021/05/11 07:00:48;;;;;;;76.22;9.30;;;17.10;77.20;;;;;;5037941;28;20508;-62
2021/05/11 07:03:14;;;;;;;60.10;7.25;;;17.20;77.00;;;;;;5027701;28;20566;-62
2021/05/11 07:05:40;;;;;;;56.10;6.85;;;17.20;76.90;;;;;;5040242;28;20457;-61
2021/05/11 07:10:34;;;;;;;28.30;4.68;;;17.10;77.80;;;;;;5031983;28;20064;-61
2021/05/11 07:13:32;;;;;;;34.13;4.57;;;17.10;78.40;;;;;;5034626;28;20017;-62
2021/05/11 07:15:51;;;;;;;19.35;4.20;;;17.10;79.20;;;;;;5032215;28;20123;-60
2021/05/11 07:18:18;;;;;;;45.33;5.60;;;17.00;79.50;;;;;;5038720;28;20025;-62
2021/05/11 07:20:45;;;;;;;29.42;4.78;;;17.10;80.00;;;;;;5028524;28;20031;-61
2021/05/11 07:23:15;;;;;;;20.48;4.32;;;17.00;80.20;;;;;;5032183;28;20029;-61
2021/05/11 07:25:53;;;;;;;21.10;3.75;;;17.00;80.00;;;;;;5032927;28;20083;-62
2021/05/11 07:28:34;;;;;;;26.25;4.07;;;17.00;80.20;;;;;;5034688;28;20022;-61
2021/05/11 07:31:04;;;;;;;19.98;3.63;;;17.00;80.40;;;;;;5032338;28;20025;-62
2021/05/11 07:33:39;;;;;;;30.38;4.03;;;17.00;80.40;;;;;;5014438;28;20024;-62
2021/05/11 07:36:05;;;;;;;26.50;4.10;;;17.00;80.80;;;;;;4998000;28;20039;-62
2021/05/11 07:38:31;;;;;;;21.17;4.22;;;17.00;80.50;;;;;;4996199;28;20087;-61
2021/05/11 07:40:57;;;;;;;193.85;18.08;;;17.00;80.70;;;;;;4983065;28;20066;-61
2021/05/11 07:43:24;;;;;;;30.27;5.32;;;17.00;80.60;;;;;;4979480;28;20041;-62
2021/05/11 07:46:13;;;;;;;23.75;3.78;;;17.00;80.40;;;;;;4968272;28;20025;-61
2021/05/11 08:04:44;;;;;;;12.80;2.97;;;17.10;80.00;;;;;;4982525;28;20664;-61
2021/05/11 08:17:28;;;;;;;21.80;3.85;;;17.20;79.60;;;;;;4977817;28;20035;-61
2021/05/11 08:22:47;;;;;;;20.85;3.00;;;17.20;79.90;;;;;;5007276;28;20062;-62
2021/05/11 08:27:58;;;;;;;25.80;3.75;;;17.30;79.60;;;;;;4977191;28;20088;-62
2021/05/11 08:30:24;;;;;;;38.78;3.97;;;17.20;79.60;;;;;;4979366;28;20025;-60
2021/05/11 08:32:50;;;;;;;28.27;3.55;;;17.30;79.60;;;;;;4978026;28;20018;-61
2021/05/11 08:35:15;;;;;;;21.15;3.42;;;17.30;79.40;;;;;;4979152;28;20089;-61
2021/05/11 08:37:41;;;;;;;33.20;3.88;;;17.30;79.70;;;;;;4980551;28;20113;-61
2021/05/11 08:40:07;;;;;;;33.30;4.45;;;17.40;78.70;;;;;;4981172;28;20049;-63
2021/05/11 08:42:33;;;;;;;34.42;4.00;;;17.40;78.90;;;;;;4980154;28;20058;-62
2021/05/11 08:45:03;;;;;;;28.80;3.28;;;17.40;78.50;;;;;;4977951;28;20101;-61
2021/05/11 08:47:29;;;;;;;36.47;4.57;;;17.50;78.30;;;;;;4980166;28;20042;-62
2021/05/11 08:49:55;;;;;;;25.73;3.00;;;17.50;78.50;;;;;;4981038;28;20034;-62
2021/05/11 08:55:06;;;;;;;28.23;3.25;;;17.60;78.00;;;;;;4960851;28;20450;-61
2021/05/11 09:09:15;;;;;;;15.77;2.80;;;17.80;78.00;;;;;;4978578;28;20190;-61
2021/05/11 09:25:13;;;;;;;29.73;4.30;;;18.00;76.30;;;;;;4978642;28;20050;-61
2021/05/11 09:27:50;;;;;;;52.80;5.63;;;18.10;76.30;;;;;;4980184;28;20018;-61
2021/05/11 09:30:23;;;;;;;44.55;5.45;;;18.10;76.70;;;;;;4982851;28;20038;-62
2021/05/11 09:50:59;;;;;;;40.58;5.25;;;18.30;76.80;;;;;;4981522;28;20042;-62
2021/05/11 09:58:50;;;;;;;50.55;6.57;;;18.40;77.30;;;;;;4985021;28;20489;-61
2021/05/11 10:36:20;;;;;;;22.75;3.92;;;18.70;77.10;;;;;;4980105;28;20069;-62
2021/05/11 10:48:27;;;;;;;13.13;3.63;;;18.50;76.70;;;;;;4968922;28;20078;-61
2021/05/11 10:50:53;;;;;;;14.43;3.22;;;18.60;76.80;;;;;;4998888;28;21307;-61
2021/05/11 10:53:40;;;;;;;25.80;4.10;;;18.60;76.60;;;;;;4982742;28;20489;-61
2021/05/11 10:56:21;;;;;;;22.90;4.18;;;18.50;76.80;;;;;;4981603;28;20558;-62
2021/05/11 10:59:21;;;;;;;20.13;3.47;;;18.50;77.00;;;;;;4983839;28;20117;-62
2021/05/11 11:01:50;;;;;;;18.17;3.42;;;18.50;77.10;;;;;;4984068;28;20030;-62
2021/05/11 11:04:20;;;;;;;25.10;4.45;;;18.40;77.70;;;;;;4979928;28;20034;-61
2021/05/11 11:06:58;;;;;;;29.95;4.53;;;18.40;77.90;;;;;;4997044;28;20112;-63
2021/05/11 11:09:36;;;;;;;16.48;3.40;;;18.40;77.70;;;;;;4981520;28;20109;-64
2021/05/11 11:12:03;;;;;;;9.85;2.20;;;18.40;77.70;;;;;;4963712;28;20026;-62
2021/05/11 11:14:39;;;;;;;20.30;2.17;;;18.40;77.80;;;;;;4982486;28;20030;-63
2021/05/11 11:19:54;;;;;;;20.02;2.67;;;18.30;77.70;;;;;;5118714;27;20442;-62
2021/05/11 11:25:04;;;;;;;24.55;2.85;;;18.30;77.90;;;;;;5115768;27;20030;-64
2021/05/11 11:27:31;;;;;;;20.35;2.20;;;18.30;78.20;;;;;;5119900;27;20031;-63
2021/05/11 11:30:07;;;;;;;15.93;2.30;;;18.20;78.40;;;;;;5117717;28;20019;-64
2021/05/11 11:32:34;;;;;;;27.45;2.33;;;18.20;78.30;;;;;;5099621;28;20027;-62
2021/05/11 11:35:00;;;;;;;12.88;3.17;;;18.20;78.20;;;;;;5117031;27;20067;-62
2021/05/11 11:37:27;;;;;;;19.30;2.22;;;18.20;78.30;;;;;;5117792;27;20058;-62
2021/05/11 11:39:54;;;;;;;22.48;2.70;;;18.20;78.40;;;;;;5118354;27;20035;-61
2021/05/11 11:42:26;;;;;;;13.52;1.92;;;18.20;78.50;;;;;;5118717;28;20023;-61
2021/05/11 11:44:56;;;;;;;12.77;1.95;;;18.10;78.40;;;;;;5116317;27;20027;-61
2021/05/11 11:47:23;;;;;;;28.88;3.13;;;18.10;78.60;;;;;;5115931;27;20046;-60
2021/05/11 11:49:55;;;;;;;11.07;1.75;;;18.10;78.80;;;;;;5115209;27;20019;-62
2021/05/11 11:52:29;;;;;;;13.10;1.52;;;18.00;78.80;;;;;;5111884;27;20024;-61
2021/05/11 11:57:54;;;;;;;8.45;1.48;;;18.00;79.10;;;;;;5094599;28;20027;-60
2021/05/11 12:00:23;;;;;;;7.38;1.52;;;17.90;79.10;;;;;;5116897;27;20028;-60
2021/05/11 12:03:00;;;;;;;13.52;1.40;;;17.90;79.30;;;;;;5113354;27;20805;-59
2021/05/11 12:05:29;;;;;;;5.65;1.35;;;17.90;79.20;;;;;;5114362;27;20110;-59
2021/05/11 12:08:18;;;;;;;10.32;1.60;;;17.90;79.40;;;;;;5115397;28;20491;-60
2021/05/11 12:10:45;;;;;;;11.90;1.73;;;17.80;79.50;;;;;;5114084;27;20039;-60
2021/05/11 12:13:11;;;;;;;14.23;1.33;;;17.90;80.00;;;;;;5116216;27;20047;-60
2021/05/11 12:15:43;;;;;;;10.00;1.45;;;17.70;79.60;;;;;;5116403;27;20238;-60
2021/05/11 12:18:17;;;;;;;12.85;2.47;;;17.70;79.60;;;;;;5116364;27;20500;-59
2021/05/11 12:20:43;;;;;;;12.27;1.73;;;17.70;80.00;;;;;;5101035;28;21426;-60
2021/05/11 12:23:14;;;;;;;10.60;1.65;;;17.70;79.80;;;;;;5114282;27;20031;-60
2021/05/11 12:25:40;;;;;;;12.98;1.67;;;17.70;79.80;;;;;;5113779;27;20032;-59
2021/05/11 12:28:05;;;;;;;19.25;1.70;;;17.70;80.00;;;;;;5116643;27;20035;-59
2021/05/11 12:30:49;;;;;;;12.35;1.42;;;17.70;80.10;;;;;;5108357;27;20043;-60
2021/05/11 12:33:17;;;;;;;6.57;1.58;;;17.60;80.20;;;;;;5101386;28;20065;-60
2021/05/11 12:35:43;;;;;;;17.13;1.70;;;17.60;80.30;;;;;;5101592;28;20031;-60
2021/05/11 12:38:16;;;;;;;13.48;1.40;;;17.70;80.10;;;;;;5098771;28;20535;-60
2021/05/11 12:41:31;;;;;;;57.53;3.78;;;17.70;80.40;;;;;;5101666;27;20046;-61
2021/05/11 12:43:40;;;;;;;38.35;3.42;;;17.60;80.70;;;;;;5095788;27;20168;-60
2021/05/11 12:46:25;;;;;;;51.88;3.90;;;17.70;81.20;;;;;;5100973;27;20035;-60
2021/05/11 12:49:15;;;;;;;34.17;3.90;;;17.70;80.90;;;;;;5101714;27;20016;-60
2021/05/11 12:51:42;;;;;;;43.38;3.80;;;17.70;81.10;;;;;;5096079;28;20092;-60
2021/05/11 12:54:48;;;;;;;24.23;2.60;;;17.60;81.30;;;;;;5102954;28;20105;-60
2021/05/11 12:58:23;;;;;;;30.65;3.28;;;17.70;80.90;;;;;;5082124;28;20043;-60
2021/05/11 13:00:46;;;;;;;57.42;6.15;;;17.60;80.80;;;;;;5087596;27;20081;-60
2021/05/11 13:16:24;;;;;;;29.83;2.75;;;17.60;81.10;;;;;;5099806;28;20824;-60
2021/05/11 13:26:49;;;;;;;25.42;3.92;;;17.60;80.90;;;;;;5103300;28;20035;-61
2021/05/11 13:29:35;;;;;;;28.42;3.67;;;17.60;81.10;;;;;;5099630;27;20507;-62
2021/05/11 13:32:04;;;;;;;25.10;3.17;;;17.60;81.30;;;;;;5100740;27;20032;-60
2021/05/11 13:34:31;;;;;;;39.92;5.10;;;17.60;81.00;;;;;;5100175;28;20027;-60
2021/05/11 13:36:57;;;;;;;164.88;14.63;;;17.60;81.00;;;;;;5103409;28;20031;-61
2021/05/11 13:39:22;;;;;;;70.82;6.47;;;17.60;81.00;;;;;;5102396;28;20851;-60
2021/05/11 13:41:48;;;;;;;41.60;4.57;;;17.70;81.10;;;;;;5099982;28;20110;-60
2021/05/11 13:44:14;;;;;;;358.50;26.17;;;17.60;81.10;;;;;;5098565;28;20595;-60
2021/05/11 13:46:39;;;;;;;147.85;13.23;;;17.60;81.00;;;;;;5097300;28;20050;-61
2021/05/11 13:49:05;;;;;;;111.07;9.93;;;17.60;80.90;;;;;;5097846;28;20313;-60
2021/05/11 13:51:30;;;;;;;93.10;8.40;;;17.50;80.90;;;;;;5100174;28;20032;-60
2021/05/11 13:53:59;;;;;;;66.72;5.90;;;17.60;81.10;;;;;;5096476;27;20042;-60
2021/05/11 14:04:09;;;;;;;49.58;5.00;;;17.60;80.60;;;;;;5099209;28;20023;-60
2021/05/11 14:06:35;;;;;;;42.10;4.60;;;17.60;80.80;;;;;;5100078;27;20429;-60
2021/05/11 14:09:00;;;;;;;59.42;6.07;;;17.60;81.00;;;;;;5098772;28;20046;-60
2021/05/11 14:11:27;;;;;;;92.28;8.88;;;17.60;81.20;;;;;;5099327;28;20023;-60
2021/05/11 14:13:52;;;;;;;61.30;6.07;;;17.60;81.10;;;;;;5095205;28;20700;-61
2021/05/11 14:16:18;;;;;;;72.60;6.30;;;17.60;81.30;;;;;;5096642;28;20122;-60
2021/05/11 14:18:43;;;;;;;55.35;5.68;;;17.60;81.30;;;;;;5097368;28;20238;-60
2021/05/11 14:21:09;;;;;;;57.35;5.57;;;17.60;81.10;;;;;;5096779;28;20038;-61
2021/05/11 14:23:34;;;;;;;55.80;6.18;;;17.60;81.50;;;;;;5096255;28;20100;-60
2021/05/11 14:26:00;;;;;;;65.75;6.03;;;17.60;81.40;;;;;;5096502;28;20546;-61
2021/05/11 14:28:26;;;;;;;57.65;6.45;;;17.60;81.40;;;;;;5098013;28;20893;-61
2021/05/11 14:30:51;;;;;;;60.70;6.40;;;17.60;81.40;;;;;;5096984;28;20553;-60
2021/05/11 14:33:17;;;;;;;56.65;5.53;;;17.60;81.10;;;;;;5098204;28;20084;-61
2021/05/11 14:35:42;;;;;;;64.43;6.55;;;17.60;81.40;;;;;;5098237;28;20039;-60
2021/05/11 14:38:08;;;;;;;79.75;7.70;;;17.60;81.50;;;;;;5098354;27;20025;-61
2021/05/11 14:40:33;;;;;;;83.05;9.38;;;17.60;81.40;;;;;;5097324;28;20042;-61
2021/05/11 14:42:59;;;;;;;76.25;8.65;;;17.60;81.90;;;;;;5097641;28;20085;-60
2021/05/11 14:45:26;;;;;;;70.43;8.75;;;17.60;82.60;;;;;;5096196;28;20039;-61
2021/05/11 14:47:52;;;;;;;80.32;7.47;;;17.60;81.50;;;;;;5099078;27;20066;-60
2021/05/11 14:50:19;;;;;;;66.68;8.15;;;17.60;81.40;;;;;;5099121;28;20458;-61
2021/05/11 14:52:44;;;;;;;87.78;9.38;;;17.60;81.50;;;;;;5079669;28;20386;-61
2021/05/11 14:55:13;;;;;;;89.68;8.75;;;17.60;81.70;;;;;;5096861;28;20085;-61
2021/05/11 14:57:39;;;;;;;99.15;9.95;;;17.60;82.00;;;;;;5098675;27;20097;-60
2021/05/11 15:00:05;;;;;;;83.55;9.35;;;17.60;82.20;;;;;;5073187;28;20043;-60
2021/05/11 15:02:30;;;;;;;94.97;9.35;;;17.60;82.00;;;;;;5086637;28;20044;-60
2021/05/11 15:04:56;;;;;;;80.32;8.90;;;17.60;82.20;;;;;;5093159;28;20027;-60
2021/05/11 15:07:21;;;;;;;88.70;9.35;;;17.60;81.90;;;;;;5092420;28;20042;-60
2021/05/11 15:09:47;;;;;;;92.82;9.48;;;17.60;82.00;;;;;;5095302;28;20036;-60
2021/05/11 15:12:13;;;;;;;80.85;10.60;;;17.60;82.00;;;;;;5092434;27;20157;-60
2021/05/11 15:14:38;;;;;;;122.30;12.43;;;17.60;82.80;;;;;;5077783;28;20040;-63
2021/05/11 15:19:55;;;;;;;119.72;10.27;;;17.50;82.50;;;;;;5050966;28;20113;-60
2021/05/11 15:22:21;;;;;;;95.82;10.70;;;17.60;82.80;;;;;;5072102;28;20057;-60
2021/05/11 15:24:47;;;;;;;131.15;13.32;;;17.60;83.00;;;;;;5077761;28;20024;-63
2021/05/11 15:27:13;;;;;;;107.22;12.23;;;17.60;83.40;;;;;;5059714;28;20040;-61
2021/05/11 15:29:38;;;;;;;85.93;12.30;;;17.70;82.60;;;;;;5055513;28;20119;-60
2021/05/11 15:32:43;;;;;;;138.85;14.60;;;17.70;81.90;;;;;;5071652;28;20027;-61
2021/05/11 15:35:12;;;;;;;127.97;14.00;;;17.60;82.70;;;;;;5080340;28;20120;-61
2021/05/11 15:37:38;;;;;;;185.07;16.27;;;17.70;82.70;;;;;;5077873;28;20371;-61
2021/05/11 15:40:14;;;;;;;139.40;15.38;;;17.70;83.20;;;;;;5062789;28;20032;-60
2021/05/11 15:42:40;;;;;;;137.85;15.38;;;17.60;83.20;;;;;;5076811;28;20076;-61
2021/05/11 15:45:06;;;;;;;161.85;16.73;;;17.70;83.10;;;;;;5075115;28;20023;-61
2021/05/11 15:47:31;;;;;;;379.65;29.40;;;17.60;83.50;;;;;;5074249;28;20476;-60
2021/05/11 15:49:57;;;;;;;185.27;19.55;;;17.70;83.10;;;;;;5076416;28;20075;-60
2021/05/11 15:52:22;;;;;;;158.60;18.00;;;17.70;82.70;;;;;;5073641;28;20055;-60
2021/05/11 15:54:48;;;;;;;216.88;19.58;;;17.70;82.70;;;;;;5074596;28;20418;-60
2021/05/11 15:57:14;;;;;;;220.23;18.45;;;17.70;82.90;;;;;;5073470;28;20505;-61
2021/05/11 15:59:40;;;;;;;225.82;21.77;;;17.70;83.70;;;;;;5075831;28;20030;-60
2021/05/11 16:02:05;;;;;;;338.38;33.13;;;17.70;83.40;;;;;;5071762;28;20532;-60
2021/05/11 16:04:31;;;;;;;210.75;22.33;;;17.70;83.70;;;;;;5075167;28;20043;-61
2021/05/11 16:06:56;;;;;;;252.05;24.48;;;17.80;83.80;;;;;;5082280;28;20300;-61
2021/05/11 16:09:22;;;;;;;217.20;22.60;;;17.80;83.10;;;;;;5080062;28;20242;-61
2021/05/11 16:11:48;;;;;;;361.67;34.05;;;17.80;84.00;;;;;;5077654;28;20032;-61
2021/05/11 16:14:14;;;;;;;286.10;26.88;;;17.70;83.90;;;;;;5080833;28;20562;-61
2021/05/11 16:16:39;;;;;;;232.20;24.13;;;17.80;83.50;;;;;;5083199;28;20032;-60
2021/05/11 16:19:05;;;;;;;241.52;24.38;;;17.80;83.80;;;;;;5079702;28;20101;-61
2021/05/11 16:21:30;;;;;;;238.15;21.98;;;17.80;84.10;;;;;;5077224;28;20074;-60
2021/05/11 16:23:56;;;;;;;213.00;23.40;;;17.70;83.30;;;;;;5081998;28;20035;-61
2021/05/11 16:26:25;;;;;;;166.43;16.70;;;17.80;84.20;;;;;;5082955;28;20457;-60
2021/05/11 16:28:51;;;;;;;230.27;22.17;;;17.80;84.00;;;;;;5077785;28;20096;-61
2021/05/11 16:31:17;;;;;;;204.15;19.40;;;17.80;83.80;;;;;;5078054;28;20966;-61
2021/05/11 16:33:43;;;;;;;182.90;18.70;;;17.80;83.70;;;;;;5080006;28;20040;-61
2021/05/11 16:36:09;;;;;;;229.63;22.58;;;17.80;84.40;;;;;;5080858;27;20051;-60